createdAt,value
2022-08-29T00:00:27.134Z,24.33
2022-08-29T00:02:56.677Z,19.92
2022-08-29T00:05:28.185Z,19.35
2022-08-29T00:07:56.733Z,19.48
2022-08-29T00:10:23.326Z,18.10
2022-08-29T00:12:50.242Z,17.15
2022-08-29T00:15:17.321Z,17.02
2022-08-29T00:17:43.985Z,17.95
2022-08-29T00:20:14.099Z,18.30
2022-08-29T00:22:40.869Z,17.70
2022-08-29T00:25:08.495Z,18.40
2022-08-29T00:27:35.279Z,19.27
2022-08-29T00:30:02.178Z,20.92
2022-08-29T00:32:35.001Z,20.40
2022-08-29T00:35:23.690Z,19.67
2022-08-29T00:37:52.115Z,19.52
2022-08-29T00:40:23.454Z,20.55
2022-08-29T00:42:50.160Z,20.77
2022-08-29T00:45:18.216Z,19.58
2022-08-29T00:47:52.842Z,19.05
2022-08-29T00:50:26.358Z,17.83
2022-08-29T00:52:53.279Z,19.38
2022-08-29T00:55:22.586Z,21.38
2022-08-29T00:57:55.657Z,19.77
2022-08-29T01:00:23.023Z,20.20
2022-08-29T01:02:50.802Z,16.70
2022-08-29T01:05:19.843Z,20.35
2022-08-29T01:07:47.693Z,19.48
2022-08-29T01:10:35.186Z,17.13
2022-08-29T01:13:03.401Z,13.57
2022-08-29T01:15:34.106Z,19.02
2022-08-29T01:18:03.094Z,16.85
2022-08-29T01:21:00.533Z,17.05
2022-08-29T01:23:34.339Z,13.70
2022-08-29T01:26:02.231Z,15.48
2022-08-29T01:28:32.013Z,17.20
2022-08-29T01:31:09.511Z,12.57
2022-08-29T01:33:57.076Z,11.73
2022-08-29T01:36:26.680Z,13.18
2022-08-29T01:38:54.216Z,15.27
2022-08-29T01:41:22.810Z,15.73
2022-08-29T01:43:52.013Z,15.45
2022-08-29T01:46:21.945Z,15.15
2022-08-29T01:48:48.652Z,13.68
2022-08-29T01:51:15.977Z,12.88
2022-08-29T01:53:42.757Z,9.85
2022-08-29T01:56:15.944Z,9.30
2022-08-29T01:58:43.633Z,13.15
2022-08-29T02:01:10.660Z,10.68
2022-08-29T02:03:37.340Z,10.32
2022-08-29T02:06:04.499Z,12.65
2022-08-29T02:08:31.366Z,11.50
2022-08-29T02:10:58.545Z,12.10
2022-08-29T02:13:25.228Z,11.52
2022-08-29T02:15:52.091Z,12.60
2022-08-29T02:18:18.661Z,13.68
2022-08-29T02:20:45.614Z,13.80
2022-08-29T02:23:29.893Z,12.32
2022-08-29T02:25:57.353Z,12.15
2022-08-29T02:28:23.922Z,12.32
2022-08-29T02:30:56.978Z,12.13
2022-08-29T02:33:24.620Z,11.02
2022-08-29T02:35:51.993Z,12.00
2022-08-29T02:38:19.045Z,12.35
2022-08-29T02:40:46.880Z,13.57
2022-08-29T02:43:13.618Z,10.50
2022-08-29T02:45:42.031Z,10.93
2022-08-29T02:48:09.397Z,10.30
2022-08-29T02:50:36.145Z,12.88
2022-08-29T02:53:02.765Z,10.50
2022-08-29T02:55:29.392Z,11.48
2022-08-29T02:57:55.959Z,11.40
2022-08-29T03:00:25.468Z,12.55
2022-08-29T03:02:53.169Z,11.13
2022-08-29T03:05:23.446Z,11.57
2022-08-29T03:07:51.099Z,11.23
2022-08-29T03:10:19.191Z,11.80
2022-08-29T03:12:46.766Z,12.20
2022-08-29T03:15:14.382Z,13.02
2022-08-29T03:17:40.966Z,12.85
2022-08-29T03:20:08.717Z,11.75
2022-08-29T03:22:35.454Z,12.52
2022-08-29T03:25:03.325Z,13.38
2022-08-29T03:27:31.866Z,13.80
2022-08-29T03:29:59.178Z,11.45
2022-08-29T03:32:26.559Z,11.52
2022-08-29T03:34:54.346Z,12.23
2022-08-29T03:37:20.932Z,11.68
2022-08-29T03:39:47.678Z,11.85
2022-08-29T03:42:14.270Z,10.63
2022-08-29T03:44:42.023Z,10.02
2022-08-29T03:47:11.065Z,10.75
2022-08-29T03:49:37.961Z,11.23
2022-08-29T03:52:05.972Z,9.50
2022-08-29T03:54:33.008Z,10.43
2022-08-29T03:56:59.575Z,10.05
2022-08-29T03:59:26.206Z,8.70
2022-08-29T04:01:52.869Z,9.52
2022-08-29T04:04:38.721Z,9.52
2022-08-29T04:07:06.574Z,9.55
2022-08-29T04:09:33.338Z,9.00
2022-08-29T04:12:00.090Z,8.82
2022-08-29T04:14:26.771Z,9.00
2022-08-29T04:16:53.344Z,8.88
2022-08-29T04:19:21.325Z,7.80
2022-08-29T04:21:49.016Z,8.00
2022-08-29T04:24:16.650Z,8.00
2022-08-29T04:26:43.320Z,8.32
2022-08-29T04:29:11.698Z,7.88
2022-08-29T04:31:39.374Z,8.23
2022-08-29T04:34:07.398Z,7.50
2022-08-29T04:36:35.183Z,8.23
2022-08-29T04:39:01.839Z,8.63
2022-08-29T04:41:29.092Z,8.38
2022-08-29T04:43:55.674Z,9.07
2022-08-29T04:46:24.145Z,7.78
2022-08-29T04:48:51.602Z,8.25
2022-08-29T04:51:18.173Z,7.85
2022-08-29T04:53:44.973Z,8.32
2022-08-29T04:56:12.901Z,7.68
2022-08-29T04:58:41.250Z,7.15
2022-08-29T05:01:14.100Z,8.52
2022-08-29T05:03:40.707Z,7.65
2022-08-29T05:06:12.190Z,8.30
2022-08-29T05:08:40.859Z,8.45
2022-08-29T05:11:14.278Z,8.93
2022-08-29T05:13:42.595Z,8.68
2022-08-29T05:16:11.427Z,9.88
2022-08-29T05:18:39.666Z,9.52
2022-08-29T05:21:06.581Z,10.70
2022-08-29T05:23:33.483Z,10.38
2022-08-29T05:26:02.109Z,10.88
2022-08-29T05:28:30.574Z,10.98
2022-08-29T05:30:57.673Z,12.25
2022-08-29T05:33:24.494Z,10.40
2022-08-29T05:35:51.134Z,10.30
2022-08-29T05:38:18.103Z,11.30
2022-08-29T05:40:44.776Z,11.80
2022-08-29T05:43:11.728Z,11.90
2022-08-29T05:45:39.527Z,12.40
2022-08-29T05:48:08.066Z,11.73
2022-08-29T05:50:41.879Z,11.32
2022-08-29T05:53:09.934Z,12.10
2022-08-29T05:55:41.254Z,12.43
2022-08-29T05:58:07.869Z,13.65
2022-08-29T06:00:34.622Z,13.50
2022-08-29T06:03:01.365Z,13.18
2022-08-29T06:05:28.079Z,13.57
2022-08-29T06:07:54.695Z,15.20
2022-08-29T06:10:21.473Z,13.93
2022-08-29T06:12:48.162Z,14.82
2022-08-29T06:15:14.808Z,14.98
2022-08-29T06:17:41.472Z,15.68
2022-08-29T06:20:09.714Z,16.13
2022-08-29T06:22:40.298Z,17.13
2022-08-29T06:25:35.106Z,16.08
2022-08-29T06:27:54.846Z,16.38
2022-08-29T06:30:21.566Z,18.83
2022-08-29T06:32:48.614Z,18.20
2022-08-29T06:35:15.335Z,18.17
2022-08-29T06:37:42.535Z,19.35
2022-08-29T06:40:09.627Z,19.95
2022-08-29T06:42:36.252Z,20.13
2022-08-29T06:45:02.919Z,17.33
2022-08-29T06:47:29.515Z,22.30
2022-08-29T06:49:56.108Z,21.40
2022-08-29T06:52:22.708Z,20.17
2022-08-29T06:54:49.228Z,21.05
2022-08-29T06:57:16.035Z,22.42
2022-08-29T06:59:42.712Z,21.30
2022-08-29T07:02:09.358Z,18.25
2022-08-29T07:04:36.295Z,19.13
2022-08-29T07:07:02.898Z,16.13
2022-08-29T07:09:31.229Z,15.98
2022-08-29T07:11:57.895Z,14.77
2022-08-29T07:14:24.484Z,14.20
2022-08-29T07:16:51.135Z,15.25
2022-08-29T07:19:17.736Z,14.77
2022-08-29T07:21:44.290Z,14.38
2022-08-29T07:24:10.970Z,14.25
2022-08-29T07:26:42.419Z,14.48
2022-08-29T07:29:15.465Z,13.63
2022-08-29T07:31:42.394Z,13.85
2022-08-29T07:34:09.511Z,13.90
2022-08-29T07:36:37.168Z,13.52
2022-08-29T07:39:08.828Z,14.07
2022-08-29T07:41:36.144Z,14.35
2022-08-29T07:44:03.046Z,15.80
2022-08-29T07:46:29.780Z,14.88
2022-08-29T07:48:58.507Z,13.73
2022-08-29T07:51:25.425Z,15.07
2022-08-29T07:53:52.723Z,14.23
2022-08-29T07:56:27.058Z,14.30
2022-08-29T07:58:54.912Z,14.57
2022-08-29T08:01:22.039Z,14.70
2022-08-29T08:03:50.748Z,15.43
2022-08-29T08:06:19.425Z,14.68
2022-08-29T08:08:52.260Z,14.30
2022-08-29T08:11:20.875Z,13.55
2022-08-29T08:13:48.026Z,13.45
2022-08-29T08:16:17.619Z,13.90
2022-08-29T08:18:45.051Z,15.23
2022-08-29T08:21:12.270Z,15.27
2022-08-29T08:23:40.127Z,14.05
2022-08-29T08:26:07.838Z,14.57
2022-08-29T08:28:34.508Z,14.68
2022-08-29T08:31:05.934Z,14.65
2022-08-29T08:33:35.287Z,13.25
2022-08-29T08:36:03.783Z,13.43
2022-08-29T08:38:31.563Z,13.95
2022-08-29T08:41:10.861Z,13.75
2022-08-29T08:43:45.897Z,13.23
2022-08-29T08:46:12.599Z,12.55
2022-08-29T08:48:40.177Z,13.23
2022-08-29T08:51:07.941Z,12.68
2022-08-29T08:53:36.462Z,12.07
2022-08-29T08:56:11.783Z,13.52
2022-08-29T08:58:50.394Z,10.93
2022-08-29T09:01:34.874Z,10.77
2022-08-29T09:04:23.224Z,11.10
2022-08-29T09:07:05.120Z,10.50
2022-08-29T09:09:47.613Z,11.23
2022-08-29T09:12:20.231Z,11.88
2022-08-29T09:14:56.530Z,12.00
2022-08-29T09:17:41.368Z,9.20
2022-08-29T09:20:14.045Z,10.38
2022-08-29T09:22:42.411Z,9.27
2022-08-29T09:25:11.340Z,11.40
2022-08-29T09:27:38.701Z,10.02
2022-08-29T09:30:20.830Z,10.50
2022-08-29T09:33:20.019Z,10.40
2022-08-29T09:35:51.901Z,9.68
2022-08-29T09:38:18.424Z,10.10
2022-08-29T09:40:53.509Z,9.27
2022-08-29T09:43:22.142Z,9.80
2022-08-29T09:46:09.445Z,9.05
2022-08-29T09:48:54.235Z,9.55
2022-08-29T09:51:23.475Z,9.07
2022-08-29T09:53:51.876Z,8.57
2022-08-29T09:56:25.081Z,7.90
2022-08-29T09:59:27.931Z,9.90
2022-08-29T10:02:30.419Z,8.02
2022-08-29T10:05:05.873Z,8.85
2022-08-29T10:07:51.609Z,9.63
2022-08-29T10:10:23.070Z,8.07
2022-08-29T10:12:57.425Z,9.35
2022-08-29T10:15:49.454Z,8.80
2022-08-29T10:19:01.384Z,12.65
2022-08-29T10:21:47.251Z,8.70
2022-08-29T10:25:02.059Z,8.40
2022-08-29T10:27:40.242Z,8.40
2022-08-29T10:30:26.526Z,8.80
2022-08-29T10:33:11.860Z,9.30
2022-08-29T10:35:54.568Z,9.93
2022-08-29T10:38:56.989Z,9.40
2022-08-29T10:41:26.658Z,9.88
2022-08-29T10:44:09.376Z,9.63
2022-08-29T10:46:59.095Z,10.05
2022-08-29T10:49:44.449Z,9.05
2022-08-29T10:52:17.472Z,9.35
2022-08-29T10:55:05.626Z,9.77
2022-08-29T10:57:54.938Z,8.43
2022-08-29T11:00:29.421Z,8.85
2022-08-29T11:03:15.126Z,8.30
2022-08-29T11:05:53.941Z,8.55
2022-08-29T11:08:34.641Z,9.02
2022-08-29T11:11:01.634Z,9.02
2022-08-29T11:13:38.437Z,8.98
2022-08-29T11:16:24.592Z,8.20
2022-08-29T11:19:06.023Z,8.75
2022-08-29T11:21:37.824Z,9.68
2022-08-29T11:24:05.559Z,8.82
2022-08-29T11:26:32.125Z,9.35
2022-08-29T11:29:37.740Z,7.93
2022-08-29T11:32:10.170Z,8.32
2022-08-29T11:34:42.610Z,9.38
2022-08-29T11:37:37.213Z,8.45
2022-08-29T11:40:10.123Z,9.73
2022-08-29T11:42:55.459Z,8.55
2022-08-29T11:45:29.644Z,7.97
2022-08-29T11:48:10.140Z,9.23
2022-08-29T11:50:38.598Z,8.98
2022-08-29T11:53:16.771Z,8.02
2022-08-29T11:55:45.115Z,7.70
2022-08-29T11:58:14.824Z,8.07
2022-08-29T12:00:49.019Z,7.50
2022-08-29T12:03:45.389Z,9.00
2022-08-29T12:06:14.739Z,7.97
2022-08-29T12:08:54.198Z,8.38
2022-08-29T12:11:21.242Z,8.82
2022-08-29T12:13:48.288Z,8.52
2022-08-29T12:16:18.723Z,9.27
2022-08-29T12:18:57.811Z,7.97
2022-08-29T12:21:36.498Z,9.18
2022-08-29T12:24:08.128Z,8.07
2022-08-29T12:26:46.185Z,6.95
2022-08-29T12:29:26.685Z,8.90
2022-08-29T12:32:23.826Z,8.18
2022-08-29T12:35:08.276Z,7.65
2022-08-29T12:38:10.701Z,8.15
2022-08-29T12:40:43.393Z,7.95
2022-08-29T12:43:23.639Z,7.63
2022-08-29T12:45:51.644Z,7.82
2022-08-29T12:48:27.663Z,7.90
2022-08-29T12:50:54.287Z,7.22
2022-08-29T12:53:25.419Z,7.57
2022-08-29T12:55:57.527Z,7.80
2022-08-29T12:58:45.330Z,9.63
2022-08-29T13:01:38.021Z,8.80
2022-08-29T13:04:10.842Z,6.05
2022-08-29T13:06:38.488Z,7.28
2022-08-29T13:09:06.342Z,7.25
2022-08-29T13:11:33.534Z,7.45
2022-08-29T13:14:11.970Z,8.10
2022-08-29T13:16:40.202Z,7.88
2022-08-29T13:19:19.545Z,6.75
2022-08-29T13:21:46.118Z,7.15
2022-08-29T13:24:20.789Z,7.30
2022-08-29T13:27:04.425Z,6.07
2022-08-29T13:29:37.128Z,7.30
2022-08-29T13:32:23.148Z,6.50
2022-08-29T13:35:01.277Z,6.20
2022-08-29T13:37:34.381Z,6.15
2022-08-29T13:40:41.192Z,5.97
2022-08-29T13:43:07.986Z,6.88
2022-08-29T13:45:35.621Z,6.50
2022-08-29T13:48:13.354Z,5.70
2022-08-29T13:50:40.723Z,5.80
2022-08-29T13:53:07.459Z,6.57
2022-08-29T13:55:34.658Z,7.00
2022-08-29T13:58:01.401Z,7.25
2022-08-29T14:00:32.363Z,7.22
2022-08-29T14:03:03.782Z,7.55
2022-08-29T14:05:30.454Z,8.88
2022-08-29T14:07:57.195Z,7.80
2022-08-29T14:10:23.810Z,7.60
2022-08-29T14:12:50.504Z,6.75
2022-08-29T14:15:21.139Z,9.05
2022-08-29T14:17:48.116Z,7.32
2022-08-29T14:20:17.587Z,6.45
2022-08-29T14:22:44.585Z,7.30
2022-08-29T14:25:12.505Z,7.80
2022-08-29T14:27:39.958Z,7.25
2022-08-29T14:30:16.158Z,7.07
2022-08-29T14:32:42.798Z,7.03
2022-08-29T14:35:11.094Z,6.82
2022-08-29T14:37:53.117Z,6.60
2022-08-29T14:40:21.840Z,7.07
2022-08-29T14:42:49.025Z,6.53
2022-08-29T14:45:15.761Z,7.85
2022-08-29T14:47:43.509Z,6.78
2022-08-29T14:50:12.791Z,7.43
2022-08-29T14:52:39.666Z,6.13
2022-08-29T14:55:07.633Z,6.93
2022-08-29T14:57:35.957Z,6.60
2022-08-29T15:00:11.662Z,6.07
2022-08-29T15:02:38.901Z,5.63
2022-08-29T15:05:06.202Z,5.40
2022-08-29T15:07:33.057Z,5.43
2022-08-29T15:09:59.985Z,4.90
2022-08-29T15:12:29.057Z,5.43
2022-08-29T15:14:56.119Z,4.68
2022-08-29T15:17:23.669Z,5.45
2022-08-29T15:20:34.279Z,5.40
2022-08-29T15:22:38.008Z,5.07
2022-08-29T15:25:06.320Z,6.00
2022-08-29T15:27:32.934Z,5.28
2022-08-29T15:29:59.602Z,5.45
2022-08-29T15:32:26.299Z,5.53
2022-08-29T15:34:53.238Z,5.78
2022-08-29T15:37:19.898Z,5.32
2022-08-29T15:39:46.551Z,6.82
2022-08-29T15:42:17.416Z,6.35
2022-08-29T15:44:44.455Z,6.30
2022-08-29T15:47:11.382Z,5.30
2022-08-29T15:49:38.641Z,5.60
2022-08-29T15:52:05.253Z,6.38
2022-08-29T15:54:31.896Z,5.97
2022-08-29T15:56:58.676Z,5.70
2022-08-29T15:59:47.224Z,7.45
2022-08-29T16:02:13.371Z,6.85
2022-08-29T16:04:44.706Z,8.55
2022-08-29T16:07:13.564Z,8.10
2022-08-29T16:09:41.463Z,8.13
2022-08-29T16:12:08.986Z,8.00
2022-08-29T16:17:22.258Z,8.20
2022-08-29T16:19:48.846Z,8.43
2022-08-29T16:22:15.487Z,9.52
2022-08-29T16:24:42.206Z,9.07
2022-08-29T16:27:08.805Z,9.18
2022-08-29T16:29:35.518Z,10.13
2022-08-29T16:32:02.425Z,9.02
2022-08-29T16:34:29.525Z,9.88
2022-08-29T16:36:57.166Z,8.02
2022-08-29T16:39:24.033Z,10.13
2022-08-29T16:41:50.842Z,12.07
2022-08-29T16:44:17.442Z,12.20
2022-08-29T16:46:44.053Z,10.77
2022-08-29T16:49:13.255Z,11.35
2022-08-29T16:51:39.913Z,12.20
2022-08-29T16:54:06.507Z,11.32
2022-08-29T16:56:33.108Z,9.13
2022-08-29T16:59:00.170Z,9.90
2022-08-29T17:01:35.502Z,10.95
2022-08-29T17:04:03.458Z,10.25
2022-08-29T17:06:30.987Z,10.48
2022-08-29T17:08:58.627Z,10.52
2022-08-29T17:11:25.794Z,11.30
2022-08-29T17:13:52.323Z,11.90
2022-08-29T17:16:19.611Z,12.27
2022-08-29T17:18:46.799Z,11.48
2022-08-29T17:21:13.818Z,11.35
2022-08-29T17:23:40.842Z,11.70
2022-08-29T17:26:10.461Z,10.95
2022-08-29T17:28:38.315Z,12.07
2022-08-29T17:31:05.756Z,10.68
2022-08-29T17:33:33.168Z,11.93
2022-08-29T17:36:00.132Z,12.02
2022-08-29T17:38:27.437Z,11.13
2022-08-29T17:41:02.323Z,10.23
2022-08-29T17:43:32.815Z,11.50
2022-08-29T17:45:59.606Z,10.38
2022-08-29T17:48:26.386Z,10.05
2022-08-29T17:50:54.007Z,10.45
2022-08-29T17:53:21.190Z,10.68
2022-08-29T17:55:47.921Z,10.40
2022-08-29T17:58:15.026Z,9.45
2022-08-29T18:00:41.861Z,9.50
2022-08-29T18:03:08.493Z,10.65
2022-08-29T18:05:35.133Z,10.05
2022-08-29T18:08:02.023Z,10.65
2022-08-29T18:10:28.859Z,9.60
2022-08-29T18:12:55.469Z,11.52
2022-08-29T18:15:22.264Z,9.13
2022-08-29T18:17:51.402Z,9.32
2022-08-29T18:20:19.650Z,10.38
2022-08-29T18:22:47.549Z,10.65
2022-08-29T18:25:14.895Z,11.15
2022-08-29T18:27:49.254Z,11.02
2022-08-29T18:30:16.629Z,10.90
2022-08-29T18:32:43.703Z,12.18
2022-08-29T18:35:11.071Z,10.63
2022-08-29T18:37:37.757Z,11.07
2022-08-29T18:40:05.795Z,12.00
2022-08-29T18:42:46.138Z,12.27
2022-08-29T18:45:13.310Z,13.73
2022-08-29T18:47:40.101Z,12.00
2022-08-29T18:50:25.914Z,12.45
2022-08-29T18:52:55.303Z,11.40
2022-08-29T18:55:23.391Z,13.20
2022-08-29T18:57:50.635Z,11.93
2022-08-29T19:00:17.866Z,11.75
2022-08-29T19:02:44.999Z,11.75
2022-08-29T19:05:11.954Z,12.98
2022-08-29T19:07:39.101Z,12.13
2022-08-29T19:10:06.642Z,11.65
2022-08-29T19:12:33.877Z,11.35
2022-08-29T19:15:00.534Z,11.02
2022-08-29T19:17:27.242Z,11.10
2022-08-29T19:20:12.526Z,10.45
2022-08-29T19:22:39.392Z,11.27
2022-08-29T19:25:08.678Z,11.48
2022-08-29T19:27:43.794Z,11.05
2022-08-29T19:30:13.427Z,11.75
2022-08-29T19:32:40.557Z,10.93
2022-08-29T19:35:07.765Z,11.95
2022-08-29T19:37:34.382Z,12.63
2022-08-29T19:40:01.830Z,12.88
2022-08-29T19:42:28.409Z,11.63
2022-08-29T19:44:56.475Z,11.75
2022-08-29T19:47:23.934Z,12.70
2022-08-29T19:49:50.952Z,13.52
2022-08-29T19:52:18.006Z,11.25
2022-08-29T19:54:44.632Z,13.07
2022-08-29T19:57:14.639Z,13.95
2022-08-29T19:59:42.339Z,13.65
2022-08-29T20:02:09.465Z,12.18
2022-08-29T20:04:36.509Z,13.55
2022-08-29T20:07:03.957Z,12.68
2022-08-29T20:09:31.600Z,12.50
2022-08-29T20:11:59.272Z,13.52
2022-08-29T20:14:25.987Z,12.70
2022-08-29T20:16:52.717Z,13.65
2022-08-29T20:19:21.398Z,12.45
2022-08-29T20:21:49.189Z,13.35
2022-08-29T20:24:16.654Z,12.43
2022-08-29T20:26:44.850Z,13.70
2022-08-29T20:29:12.262Z,13.48
2022-08-29T20:31:39.778Z,12.90
2022-08-29T20:34:06.535Z,13.75
2022-08-29T20:36:51.634Z,13.00
2022-08-29T20:41:55.580Z,14.05
2022-08-29T20:44:23.922Z,13.98
2022-08-29T20:46:52.025Z,13.43
2022-08-29T20:49:21.833Z,12.95
2022-08-29T20:51:49.011Z,12.82
2022-08-29T20:54:19.475Z,12.95
2022-08-29T20:56:46.674Z,12.63
2022-08-29T20:59:13.471Z,13.25
2022-08-29T21:01:41.701Z,14.52
2022-08-29T21:04:27.046Z,13.63
2022-08-29T21:06:59.556Z,13.95
2022-08-29T21:09:26.267Z,15.18
2022-08-29T21:11:53.513Z,15.35
2022-08-29T21:14:22.521Z,15.10
2022-08-29T21:16:53.393Z,13.68
2022-08-29T21:19:21.205Z,14.32
2022-08-29T21:21:48.495Z,13.52
2022-08-29T21:24:15.785Z,14.75
2022-08-29T21:26:42.395Z,14.10
2022-08-29T21:29:09.368Z,14.05
2022-08-29T21:31:36.703Z,13.45
2022-08-29T21:34:06.951Z,13.68
2022-08-29T21:36:34.726Z,14.23
2022-08-29T21:39:01.455Z,15.85
2022-08-29T21:41:29.909Z,14.35
2022-08-29T21:43:56.842Z,15.10
2022-08-29T21:46:31.614Z,14.98
2022-08-29T21:49:01.365Z,15.93
2022-08-29T21:51:30.076Z,15.23
2022-08-29T21:53:57.612Z,16.05
2022-08-29T21:56:25.928Z,16.15
2022-08-29T21:58:54.642Z,17.48
2022-08-29T22:01:30.137Z,15.75
2022-08-29T22:03:58.643Z,15.15
2022-08-29T22:06:27.639Z,15.80
2022-08-29T22:08:55.521Z,14.73
2022-08-29T22:11:25.120Z,15.60
2022-08-29T22:14:04.833Z,17.17
2022-08-29T22:16:31.702Z,15.85
2022-08-29T22:19:14.261Z,17.17
2022-08-29T22:21:47.189Z,15.93
2022-08-29T22:24:15.993Z,18.25
2022-08-29T22:26:43.100Z,17.85
2022-08-29T22:29:11.708Z,18.55
2022-08-29T22:31:38.953Z,17.67
2022-08-29T22:34:09.321Z,17.63
2022-08-29T22:36:35.913Z,16.50
2022-08-29T22:39:02.519Z,18.75
2022-08-29T22:41:29.224Z,17.65
2022-08-29T22:44:25.402Z,17.67
2022-08-29T22:46:43.960Z,16.50
2022-08-29T22:49:10.656Z,17.60
2022-08-29T22:51:37.282Z,16.92
2022-08-29T22:54:22.413Z,16.17
2022-08-29T22:56:49.021Z,17.15
2022-08-29T22:59:15.627Z,18.40
2022-08-29T23:01:43.832Z,16.83
2022-08-29T23:04:11.621Z,16.90
2022-08-29T23:06:38.353Z,17.17
2022-08-29T23:09:05.752Z,17.80
2022-08-29T23:11:32.683Z,18.35
2022-08-29T23:13:59.293Z,16.42
2022-08-29T23:16:25.926Z,17.15
2022-08-29T23:18:52.538Z,17.30
2022-08-29T23:21:22.747Z,18.73
2022-08-29T23:23:50.829Z,16.98
2022-08-29T23:26:18.157Z,18.85
2022-08-29T23:28:45.287Z,16.27
2022-08-29T23:31:13.653Z,17.15
2022-08-29T23:33:40.389Z,17.17
2022-08-29T23:36:07.159Z,16.60
2022-08-29T23:38:33.868Z,17.98
2022-08-29T23:41:01.046Z,16.40
2022-08-29T23:43:27.926Z,17.63
2022-08-29T23:45:55.710Z,18.65
2022-08-29T23:48:26.020Z,16.83
2022-08-29T23:50:53.662Z,18.23
2022-08-29T23:53:21.720Z,17.63
2022-08-29T23:55:48.864Z,16.63
2022-08-29T23:58:16.006Z,18.33
